Time;durP1;ratioP1;P1;durP2;ratioP2;P2;SDS_P1;SDS_P2;PMS_P1;PMS_P2;Temp;Humidity;BMP_temperature;BMP_pressure;BME280_temperature;BME280_humidity;BME280_pressure;Samples;Min_cycle;Max_cycle;Signal;HPM_P1;HPM_P2
2021/12/31 00:00:45;;;;;;;9.15;4.05;;;;;;;;;;5136749;27;20051;-75
2021/12/31 00:03:12;;;;;;;8.65;3.50;;;;;;;;;;5117606;27;20537;-74
2021/12/31 00:05:38;;;;;;;9.05;3.50;;;;;;;;;;5130871;27;20059;-74
2021/12/31 00:08:04;;;;;;;8.63;3.58;;;;;;;;;;5133711;27;20058;-73
2021/12/31 00:10:31;;;;;;;7.93;4.07;;;;;;;;;;5134214;27;20054;-74
2021/12/31 00:12:57;;;;;;;8.77;4.03;;;;;;;;;;5135559;27;20048;-74
2021/12/31 00:15:24;;;;;;;9.10;4.07;;;;;;;;;;5134081;27;20389;-73
2021/12/31 00:17:50;;;;;;;10.38;4.05;;;;;;;;;;5141598;27;20392;-74
2021/12/31 00:20:20;;;;;;;10.40;3.70;;;;;;;;;;5138261;27;20438;-75
2021/12/31 00:25:15;;;;;;;7.00;3.33;;;;;;;;;;5136321;27;20056;-73
2021/12/31 00:27:42;;;;;;;11.35;3.47;;;;;;;;;;5136345;27;20056;-73
2021/12/31 00:30:09;;;;;;;9.68;3.95;;;;;;;;;;5139895;27;20507;-72
2021/12/31 00:32:35;;;;;;;9.60;3.95;;;;;;;;;;5134315;27;20087;-73
2021/12/31 00:35:02;;;;;;;8.63;3.60;;;;;;;;;;5132385;27;20063;-72
2021/12/31 00:37:29;;;;;;;7.10;3.42;;;;;;;;;;5134203;27;20388;-73
2021/12/31 00:39:56;;;;;;;6.47;3.38;;;;;;;;;;5138495;27;20169;-74
2021/12/31 00:42:22;;;;;;;6.75;3.80;;;;;;;;;;5149142;27;20051;-74
2021/12/31 00:44:48;;;;;;;8.02;3.38;;;;;;;;;;5150756;27;20504;-74
2021/12/31 00:47:15;;;;;;;6.82;3.20;;;;;;;;;;5136799;27;20512;-74
2021/12/31 00:49:41;;;;;;;5.57;3.03;;;;;;;;;;5141544;27;20054;-74
2021/12/31 00:52:08;;;;;;;11.80;3.78;;;;;;;;;;5136338;27;20063;-74
2021/12/31 00:54:34;;;;;;;9.57;3.20;;;;;;;;;;5136507;27;20138;-74
2021/12/31 00:57:03;;;;;;;7.38;2.97;;;;;;;;;;5135342;27;20048;-74
2021/12/31 00:59:31;;;;;;;8.63;2.88;;;;;;;;;;5135980;27;20061;-74
2021/12/31 01:01:58;;;;;;;8.20;3.38;;;;;;;;;;5138873;27;20058;-74
2021/12/31 01:04:25;;;;;;;4.55;2.97;;;;;;;;;;5135590;27;20055;-74
2021/12/31 01:06:52;;;;;;;8.68;2.97;;;;;;;;;;5142929;27;20077;-74
2021/12/31 01:09:18;;;;;;;8.35;3.03;;;;;;;;;;5139714;27;20054;-74
2021/12/31 01:11:47;;;;;;;4.60;3.00;;;;;;;;;;5137063;27;20062;-74
2021/12/31 01:14:34;;;;;;;7.13;2.97;;;;;;;;;;5134931;27;20062;-73
2021/12/31 01:17:04;;;;;;;7.93;3.20;;;;;;;;;;5132359;27;20054;-73
2021/12/31 01:19:46;;;;;;;5.40;2.90;;;;;;;;;;5139178;27;20085;-73
2021/12/31 01:22:13;;;;;;;4.80;2.80;;;;;;;;;;5135553;27;20051;-73
2021/12/31 01:24:40;;;;;;;7.25;3.17;;;;;;;;;;5135113;27;20069;-72
2021/12/31 01:27:06;;;;;;;7.05;3.60;;;;;;;;;;5136963;27;20059;-74
2021/12/31 01:29:32;;;;;;;5.43;2.55;;;;;;;;;;5153244;27;20467;-73
2021/12/31 01:31:59;;;;;;;8.10;2.78;;;;;;;;;;5133364;27;20483;-74
2021/12/31 01:34:25;;;;;;;6.95;2.70;;;;;;;;;;5132913;27;20483;-73
2021/12/31 01:36:52;;;;;;;5.40;2.60;;;;;;;;;;5134546;27;20069;-73
2021/12/31 01:39:19;;;;;;;7.25;2.80;;;;;;;;;;5137923;27;20055;-74
2021/12/31 01:41:46;;;;;;;5.80;2.75;;;;;;;;;;5132572;27;20062;-72
2021/12/31 01:44:12;;;;;;;5.00;2.50;;;;;;;;;;5153009;27;20491;-73
2021/12/31 01:46:52;;;;;;;4.10;2.75;;;;;;;;;;5134560;27;20059;-73
2021/12/31 01:49:20;;;;;;;8.30;2.88;;;;;;;;;;5142083;27;20066;-73
2021/12/31 01:51:47;;;;;;;9.45;4.03;;;;;;;;;;5115573;27;20484;-74
2021/12/31 01:54:13;;;;;;;7.38;3.28;;;;;;;;;;5151197;27;20529;-74
2021/12/31 01:56:39;;;;;;;8.85;2.97;;;;;;;;;;5148416;27;20052;-74
2021/12/31 01:59:06;;;;;;;6.93;3.25;;;;;;;;;;5140645;27;20059;-73
2021/12/31 02:01:34;;;;;;;6.70;2.85;;;;;;;;;;5132978;27;20513;-72
2021/12/31 02:04:00;;;;;;;11.82;3.17;;;;;;;;;;5132037;27;20063;-73
2021/12/31 02:06:27;;;;;;;9.02;2.83;;;;;;;;;;5134532;27;20112;-74
2021/12/31 02:08:53;;;;;;;7.18;2.97;;;;;;;;;;5140901;27;20051;-74
2021/12/31 02:11:20;;;;;;;5.28;2.63;;;;;;;;;;5147361;27;20058;-74
2021/12/31 02:13:47;;;;;;;6.15;2.97;;;;;;;;;;5132635;27;20131;-74
2021/12/31 02:16:13;;;;;;;11.27;3.20;;;;;;;;;;5131899;27;20052;-73
2021/12/31 02:18:44;;;;;;;8.10;2.63;;;;;;;;;;5140889;27;20051;-73
2021/12/31 02:21:13;;;;;;;6.93;2.95;;;;;;;;;;5134235;27;20053;-74
2021/12/31 02:23:47;;;;;;;6.00;2.90;;;;;;;;;;5135814;27;20051;-74
2021/12/31 02:26:14;;;;;;;6.22;2.70;;;;;;;;;;5135919;27;20047;-74
2021/12/31 02:28:40;;;;;;;7.53;3.53;;;;;;;;;;5121926;27;20521;-74
2021/12/31 02:31:06;;;;;;;8.32;2.95;;;;;;;;;;5137461;27;20047;-74
2021/12/31 02:33:33;;;;;;;6.80;2.60;;;;;;;;;;5155084;27;20051;-73
2021/12/31 02:36:00;;;;;;;5.07;2.55;;;;;;;;;;5135427;27;20047;-72
2021/12/31 02:38:27;;;;;;;6.43;2.33;;;;;;;;;;5132855;27;20083;-73
2021/12/31 02:40:53;;;;;;;4.90;2.38;;;;;;;;;;5143710;27;20061;-72
2021/12/31 02:43:20;;;;;;;4.53;2.25;;;;;;;;;;5115794;27;20048;-74
2021/12/31 02:45:47;;;;;;;7.90;2.83;;;;;;;;;;5147016;27;20062;-74
2021/12/31 02:48:14;;;;;;;6.22;2.72;;;;;;;;;;5145322;27;20058;-73
2021/12/31 02:50:41;;;;;;;6.45;2.72;;;;;;;;;;5134204;27;20507;-74
2021/12/31 02:53:15;;;;;;;3.45;2.05;;;;;;;;;;5136571;27;20053;-74
2021/12/31 02:55:42;;;;;;;6.45;2.50;;;;;;;;;;5136394;27;20062;-74
2021/12/31 02:58:09;;;;;;;7.38;2.40;;;;;;;;;;5140509;27;20048;-73
2021/12/31 03:00:37;;;;;;;9.13;2.40;;;;;;;;;;5141789;27;20051;-74
2021/12/31 03:03:06;;;;;;;3.22;2.28;;;;;;;;;;5116282;27;20060;-74
2021/12/31 03:05:33;;;;;;;6.55;2.03;;;;;;;;;;5139234;27;20052;-74
2021/12/31 03:08:01;;;;;;;3.42;2.15;;;;;;;;;;5146160;27;20134;-74
2021/12/31 03:10:29;;;;;;;4.10;1.88;;;;;;;;;;5147085;27;20501;-74
2021/12/31 03:12:56;;;;;;;4.63;2.13;;;;;;;;;;5138509;27;20079;-74
2021/12/31 03:15:24;;;;;;;7.07;2.35;;;;;;;;;;5143498;27;20058;-73
2021/12/31 03:17:50;;;;;;;10.20;2.60;;;;;;;;;;5148316;27;20043;-73
2021/12/31 03:20:26;;;;;;;6.28;2.35;;;;;;;;;;5145880;27;20059;-74
2021/12/31 03:22:52;;;;;;;4.65;3.13;;;;;;;;;;5127706;27;20513;-74
2021/12/31 03:25:19;;;;;;;7.38;2.53;;;;;;;;;;5148916;27;20085;-73
2021/12/31 03:27:45;;;;;;;5.13;2.38;;;;;;;;;;5145461;27;20047;-74
2021/12/31 03:30:13;;;;;;;4.68;2.45;;;;;;;;;;5150119;27;20051;-74
2021/12/31 03:32:39;;;;;;;4.93;1.90;;;;;;;;;;5148220;27;20051;-73
2021/12/31 03:35:06;;;;;;;7.75;2.38;;;;;;;;;;5141126;27;20055;-73
2021/12/31 03:37:32;;;;;;;5.15;2.30;;;;;;;;;;5139998;27;20047;-72
2021/12/31 03:39:58;;;;;;;5.32;2.38;;;;;;;;;;5136757;27;20063;-73
2021/12/31 03:42:24;;;;;;;5.53;2.28;;;;;;;;;;5138960;27;20050;-73
2021/12/31 03:44:51;;;;;;;4.18;2.13;;;;;;;;;;5118784;27;20050;-74
2021/12/31 03:47:17;;;;;;;5.72;2.30;;;;;;;;;;5136993;27;20052;-74
2021/12/31 03:49:43;;;;;;;4.15;2.20;;;;;;;;;;5143590;27;20051;-74
2021/12/31 03:52:09;;;;;;;5.60;2.00;;;;;;;;;;5136593;27;20059;-74
2021/12/31 03:54:36;;;;;;;4.93;2.40;;;;;;;;;;5154319;27;20055;-74
2021/12/31 03:57:02;;;;;;;5.38;2.05;;;;;;;;;;5137103;27;20541;-72
2021/12/31 03:59:28;;;;;;;7.97;2.42;;;;;;;;;;5134618;27;20053;-72
2021/12/31 04:01:55;;;;;;;5.70;2.25;;;;;;;;;;5144976;27;20163;-74
2021/12/31 04:04:21;;;;;;;11.50;2.85;;;;;;;;;;5144703;27;20094;-74
2021/12/31 04:06:48;;;;;;;5.80;2.55;;;;;;;;;;5150009;27;20142;-74
2021/12/31 04:09:15;;;;;;;5.57;2.28;;;;;;;;;;5150554;27;20138;-73
2021/12/31 04:11:41;;;;;;;5.53;2.20;;;;;;;;;;5140811;27;20530;-74
2021/12/31 04:14:07;;;;;;;2.95;2.10;;;;;;;;;;5150360;27;20081;-75
2021/12/31 04:16:34;;;;;;;6.22;2.28;;;;;;;;;;5142286;27;20131;-75
2021/12/31 04:19:01;;;;;;;3.13;1.70;;;;;;;;;;5123200;27;20058;-74
2021/12/31 04:21:30;;;;;;;5.82;2.20;;;;;;;;;;5134282;27;20058;-74
2021/12/31 04:24:08;;;;;;;4.63;2.25;;;;;;;;;;5142375;27;20055;-73
2021/12/31 04:26:35;;;;;;;6.13;2.00;;;;;;;;;;5128476;27;20055;-72
2021/12/31 04:29:01;;;;;;;5.53;1.92;;;;;;;;;;5136680;27;20054;-74
2021/12/31 04:31:27;;;;;;;5.32;2.00;;;;;;;;;;5139935;27;20510;-73
2021/12/31 04:33:54;;;;;;;6.20;2.40;;;;;;;;;;5138219;27;20051;-73
2021/12/31 04:36:21;;;;;;;7.18;2.08;;;;;;;;;;5133920;27;20058;-73
2021/12/31 04:38:47;;;;;;;7.05;2.45;;;;;;;;;;5153456;27;20504;-73
2021/12/31 04:41:13;;;;;;;5.95;2.13;;;;;;;;;;5149060;27;20086;-73
2021/12/31 04:43:39;;;;;;;5.50;2.25;;;;;;;;;;5136898;27;20134;-73
2021/12/31 04:46:06;;;;;;;6.47;1.80;;;;;;;;;;5137668;27;20047;-73
2021/12/31 04:48:32;;;;;;;4.50;2.30;;;;;;;;;;5135767;27;20066;-73
2021/12/31 04:50:58;;;;;;;4.88;2.10;;;;;;;;;;5136852;27;20048;-75
2021/12/31 04:53:25;;;;;;;7.28;2.40;;;;;;;;;;5138436;27;20067;-75
2021/12/31 04:55:51;;;;;;;6.55;2.20;;;;;;;;;;5144089;27;20505;-73
2021/12/31 04:58:18;;;;;;;4.53;2.08;;;;;;;;;;5138158;27;20052;-74
2021/12/31 05:00:44;;;;;;;4.25;2.05;;;;;;;;;;5142619;27;20058;-74
2021/12/31 05:03:11;;;;;;;6.53;2.53;;;;;;;;;;5135428;27;20104;-72
2021/12/31 05:05:37;;;;;;;5.63;1.92;;;;;;;;;;5140585;27;20058;-73
2021/12/31 05:08:04;;;;;;;6.13;1.85;;;;;;;;;;5136760;27;20052;-74
2021/12/31 05:10:32;;;;;;;4.78;2.17;;;;;;;;;;5143067;27;20083;-75
2021/12/31 05:12:59;;;;;;;5.03;2.05;;;;;;;;;;5137107;27;20530;-72
2021/12/31 05:15:27;;;;;;;9.38;1.90;;;;;;;;;;5134184;27;20051;-73
2021/12/31 05:17:54;;;;;;;4.45;1.75;;;;;;;;;;5134990;27;20052;-74
2021/12/31 05:20:21;;;;;;;3.45;1.77;;;;;;;;;;5144396;27;20074;-72
2021/12/31 05:22:47;;;;;;;6.90;2.10;;;;;;;;;;5141620;27;20519;-75
2021/12/31 05:25:13;;;;;;;3.95;1.85;;;;;;;;;;5143628;27;20059;-74
2021/12/31 05:27:40;;;;;;;4.63;2.00;;;;;;;;;;5147512;27;20066;-74
2021/12/31 05:30:06;;;;;;;3.88;1.98;;;;;;;;;;5124895;27;20513;-73
2021/12/31 05:32:33;;;;;;;3.22;1.80;;;;;;;;;;5138758;27;20513;-74
2021/12/31 05:34:59;;;;;;;5.28;1.90;;;;;;;;;;5138751;27;20059;-74
2021/12/31 05:37:25;;;;;;;3.15;1.88;;;;;;;;;;5134810;27;20051;-74
2021/12/31 05:39:51;;;;;;;6.55;2.15;;;;;;;;;;5141101;27;20058;-74
2021/12/31 05:42:18;;;;;;;4.38;1.95;;;;;;;;;;5135492;27;20056;-74
2021/12/31 05:44:44;;;;;;;2.33;1.92;;;;;;;;;;5141923;27;20058;-74
2021/12/31 05:47:11;;;;;;;4.70;1.67;;;;;;;;;;5133449;27;20051;-73
2021/12/31 05:49:37;;;;;;;4.22;1.50;;;;;;;;;;5137414;27;20495;-74
2021/12/31 05:52:04;;;;;;;5.43;2.03;;;;;;;;;;5135327;27;20063;-75
2021/12/31 05:54:30;;;;;;;5.95;1.92;;;;;;;;;;5135121;27;20058;-73
2021/12/31 05:56:57;;;;;;;3.75;2.00;;;;;;;;;;5135433;27;20093;-73
2021/12/31 05:59:23;;;;;;;4.00;1.77;;;;;;;;;;5147214;27;20055;-74
2021/12/31 06:01:49;;;;;;;3.33;1.95;;;;;;;;;;5131222;27;20048;-73
2021/12/31 06:04:16;;;;;;;4.28;1.85;;;;;;;;;;5143045;27;20059;-74
2021/12/31 06:06:43;;;;;;;4.60;1.80;;;;;;;;;;5140797;27;20134;-74
2021/12/31 06:09:12;;;;;;;4.57;2.00;;;;;;;;;;5142179;27;20048;-73
2021/12/31 06:11:38;;;;;;;5.28;1.80;;;;;;;;;;5148628;27;20134;-73
2021/12/31 06:14:06;;;;;;;3.83;1.83;;;;;;;;;;5126774;27;20062;-73
2021/12/31 06:16:35;;;;;;;7.20;2.83;;;;;;;;;;5132573;27;20487;-72
2021/12/31 06:19:05;;;;;;;3.75;1.70;;;;;;;;;;5120769;27;20058;-73
2021/12/31 06:21:32;;;;;;;3.72;1.73;;;;;;;;;;5126593;27;20059;-73
2021/12/31 06:24:05;;;;;;;4.75;2.20;;;;;;;;;;5133806;27;20505;-74
2021/12/31 06:26:32;;;;;;;3.53;1.60;;;;;;;;;;5134322;27;20087;-75
2021/12/31 06:28:58;;;;;;;3.28;1.65;;;;;;;;;;5133910;27;20048;-75
2021/12/31 06:31:25;;;;;;;3.55;2.00;;;;;;;;;;5133945;27;20052;-74
2021/12/31 06:33:51;;;;;;;5.93;2.13;;;;;;;;;;5133343;27;20047;-73
2021/12/31 06:36:19;;;;;;;5.22;2.05;;;;;;;;;;5130474;27;20342;-73
2021/12/31 06:38:45;;;;;;;6.13;1.85;;;;;;;;;;5132257;27;20058;-75
2021/12/31 06:41:13;;;;;;;2.55;1.90;;;;;;;;;;5133460;27;20427;-76
2021/12/31 06:43:40;;;;;;;4.95;1.80;;;;;;;;;;5132698;27;20054;-74
2021/12/31 06:46:06;;;;;;;4.88;1.90;;;;;;;;;;5130467;27;20051;-75
2021/12/31 06:48:32;;;;;;;5.10;2.03;;;;;;;;;;5135797;27;20054;-73
2021/12/31 06:50:59;;;;;;;4.15;1.98;;;;;;;;;;5133133;27;20102;-74
2021/12/31 06:53:25;;;;;;;3.35;1.77;;;;;;;;;;5133652;27;20052;-75
2021/12/31 06:55:51;;;;;;;6.30;1.98;;;;;;;;;;5120287;27;20055;-73
2021/12/31 06:58:17;;;;;;;2.75;1.85;;;;;;;;;;5138001;27;20054;-76
2021/12/31 07:00:44;;;;;;;5.07;2.00;;;;;;;;;;5136569;27;20611;-77
2021/12/31 07:03:11;;;;;;;4.53;1.73;;;;;;;;;;5134341;27;20055;-77
2021/12/31 07:05:41;;;;;;;3.70;1.80;;;;;;;;;;5137569;27;20047;-77
2021/12/31 07:08:07;;;;;;;4.68;1.77;;;;;;;;;;5137958;27;20471;-77
2021/12/31 07:10:40;;;;;;;4.72;2.45;;;;;;;;;;5133218;27;20056;-76
2021/12/31 07:13:11;;;;;;;2.50;1.80;;;;;;;;;;5117070;28;20048;-75
2021/12/31 07:15:48;;;;;;;6.03;2.10;;;;;;;;;;5121785;27;20101;-78
2021/12/31 07:18:14;;;;;;;5.13;1.88;;;;;;;;;;5136775;27;20048;-75
2021/12/31 07:20:41;;;;;;;3.97;1.80;;;;;;;;;;5137136;27;20054;-77
2021/12/31 07:23:08;;;;;;;2.67;1.65;;;;;;;;;;5137652;27;20055;-76
2021/12/31 07:25:35;;;;;;;7.00;2.08;;;;;;;;;;5137429;27;20522;-76
2021/12/31 07:28:02;;;;;;;6.57;2.15;;;;;;;;;;5134362;27;20070;-76
2021/12/31 07:30:28;;;;;;;3.88;2.03;;;;;;;;;;5136785;27;20051;-76
2021/12/31 07:32:55;;;;;;;4.65;2.47;;;;;;;;;;5137035;27;20060;-76
2021/12/31 07:35:21;;;;;;;3.88;2.03;;;;;;;;;;5136929;27;20048;-76
2021/12/31 07:37:48;;;;;;;4.22;2.15;;;;;;;;;;5136776;27;20060;-75
2021/12/31 07:40:23;;;;;;;7.78;2.30;;;;;;;;;;5136726;27;20513;-77
2021/12/31 07:42:50;;;;;;;5.70;2.53;;;;;;;;;;5136746;27;20089;-77
2021/12/31 07:45:16;;;;;;;6.43;2.60;;;;;;;;;;5137164;27;20056;-75
2021/12/31 07:47:44;;;;;;;5.10;2.45;;;;;;;;;;5136661;27;20561;-76
2021/12/31 07:50:11;;;;;;;7.18;2.10;;;;;;;;;;5137014;27;20495;-76
2021/12/31 07:52:37;;;;;;;4.93;2.50;;;;;;;;;;5138935;27;20055;-76
2021/12/31 07:55:04;;;;;;;6.38;2.33;;;;;;;;;;5152121;27;20513;-73
2021/12/31 07:57:31;;;;;;;3.83;2.13;;;;;;;;;;5129230;27;20146;-79
2021/12/31 07:59:57;;;;;;;5.00;1.77;;;;;;;;;;5137030;27;20147;-77
2021/12/31 08:02:23;;;;;;;4.10;2.20;;;;;;;;;;5132473;27;20062;-77
2021/12/31 08:04:50;;;;;;;10.75;2.50;;;;;;;;;;5135589;27;20104;-77
2021/12/31 08:07:16;;;;;;;3.90;1.92;;;;;;;;;;5136236;27;20050;-77
2021/12/31 08:09:42;;;;;;;5.80;2.45;;;;;;;;;;5128263;27;20062;-77
2021/12/31 08:12:08;;;;;;;3.72;1.98;;;;;;;;;;5136066;27;20059;-80
2021/12/31 08:14:34;;;;;;;2.95;2.03;;;;;;;;;;5136387;27;20612;-76
2021/12/31 08:17:01;;;;;;;4.50;1.95;;;;;;;;;;5136056;27;20047;-77
2021/12/31 08:19:27;;;;;;;3.33;2.08;;;;;;;;;;5130803;27;20062;-78
2021/12/31 08:21:53;;;;;;;3.63;2.10;;;;;;;;;;5136789;27;20043;-78
2021/12/31 08:24:20;;;;;;;5.82;2.10;;;;;;;;;;5136125;27;20533;-81
2021/12/31 08:26:47;;;;;;;6.13;2.15;;;;;;;;;;5131609;27;20051;-79
2021/12/31 08:29:13;;;;;;;3.33;1.98;;;;;;;;;;5136052;27;20058;-77
2021/12/31 08:31:43;;;;;;;8.80;2.40;;;;;;;;;;5135687;27;20126;-78
2021/12/31 08:34:09;;;;;;;3.80;2.08;;;;;;;;;;5136568;27;20147;-77
2021/12/31 08:36:35;;;;;;;6.53;2.25;;;;;;;;;;5135215;27;20060;-76
2021/12/31 08:39:03;;;;;;;4.70;2.22;;;;;;;;;;5135530;27;20055;-79
2021/12/31 08:41:29;;;;;;;4.32;2.35;;;;;;;;;;5136139;27;20047;-77
2021/12/31 08:44:13;;;;;;;3.70;2.67;;;;;;;;;;5138127;27;20457;-80
2021/12/31 08:46:41;;;;;;;4.15;2.58;;;;;;;;;;5152706;27;20077;-79
2021/12/31 08:49:08;;;;;;;4.45;2.53;;;;;;;;;;5136299;27;20139;-80
2021/12/31 08:51:34;;;;;;;8.02;2.70;;;;;;;;;;5116252;27;20055;-77
2021/12/31 08:54:01;;;;;;;6.55;3.08;;;;;;;;;;5132738;27;20055;-74
2021/12/31 08:56:27;;;;;;;5.45;2.75;;;;;;;;;;5117300;27;20052;-77
2021/12/31 08:58:54;;;;;;;9.65;3.72;;;;;;;;;;5134494;27;20095;-74
2021/12/31 09:01:20;;;;;;;4.05;2.80;;;;;;;;;;5133727;27;20529;-72
2021/12/31 09:03:46;;;;;;;4.85;2.92;;;;;;;;;;5133736;27;20087;-75
2021/12/31 09:06:17;;;;;;;5.22;2.50;;;;;;;;;;5113959;27;20063;-76
2021/12/31 09:08:44;;;;;;;5.68;2.55;;;;;;;;;;5133254;27;20043;-78
2021/12/31 09:11:11;;;;;;;5.13;2.67;;;;;;;;;;5132954;27;20054;-79
2021/12/31 09:13:37;;;;;;;3.88;2.63;;;;;;;;;;5135422;27;20051;-78
2021/12/31 09:16:04;;;;;;;5.57;2.78;;;;;;;;;;5135407;27;20055;-78
2021/12/31 09:18:30;;;;;;;4.80;2.53;;;;;;;;;;5134850;27;20059;-78
2021/12/31 09:20:56;;;;;;;4.22;2.50;;;;;;;;;;5135046;27;20055;-79
2021/12/31 09:23:23;;;;;;;6.15;2.55;;;;;;;;;;5134264;27;20142;-77
2021/12/31 09:25:49;;;;;;;5.07;2.85;;;;;;;;;;5134162;27;20062;-74
2021/12/31 09:28:16;;;;;;;7.68;3.40;;;;;;;;;;5134826;27;20051;-78
2021/12/31 09:30:43;;;;;;;4.95;2.67;;;;;;;;;;5133734;27;20052;-77
2021/12/31 09:33:09;;;;;;;4.72;2.63;;;;;;;;;;5133967;27;20056;-77
2021/12/31 09:35:36;;;;;;;4.65;2.90;;;;;;;;;;5135268;27;20135;-75
2021/12/31 09:38:08;;;;;;;6.15;3.17;;;;;;;;;;5134824;27;20519;-78
2021/12/31 09:40:38;;;;;;;4.85;3.00;;;;;;;;;;5134471;27;20047;-78
2021/12/31 09:43:08;;;;;;;6.70;2.85;;;;;;;;;;5134714;27;20051;-76
2021/12/31 09:45:38;;;;;;;8.27;2.90;;;;;;;;;;5134310;27;20158;-80
2021/12/31 09:48:08;;;;;;;3.83;2.83;;;;;;;;;;5136239;27;20051;-79
2021/12/31 09:50:35;;;;;;;4.38;3.05;;;;;;;;;;5134865;27;20051;-75
2021/12/31 09:53:02;;;;;;;7.00;2.97;;;;;;;;;;5133484;27;20449;-77
2021/12/31 09:55:34;;;;;;;7.60;2.78;;;;;;;;;;5134882;27;20054;-79
2021/12/31 09:58:00;;;;;;;5.90;2.63;;;;;;;;;;5134139;27;20522;-78
2021/12/31 10:00:27;;;;;;;4.88;3.20;;;;;;;;;;5135336;27;20054;-78
2021/12/31 10:03:13;;;;;;;15.52;10.55;;;;;;;;;;5132911;27;20070;-75
2021/12/31 10:05:43;;;;;;;6.72;3.10;;;;;;;;;;5131275;27;20361;-61
2021/12/31 10:08:18;;;;;;;5.47;3.50;;;;;;;;;;5134581;27;20051;-75
2021/12/31 10:11:03;;;;;;;4.07;2.40;;;;;;;;;;5135131;27;20051;-74
2021/12/31 10:13:30;;;;;;;5.07;2.85;;;;;;;;;;5133978;27;20051;-74
2021/12/31 10:15:56;;;;;;;6.35;3.28;;;;;;;;;;5115972;27;20517;-72
2021/12/31 10:18:43;;;;;;;6.70;2.75;;;;;;;;;;5133452;27;20054;-71
2021/12/31 10:21:09;;;;;;;6.95;3.25;;;;;;;;;;5134828;27;20054;-73
2021/12/31 10:23:38;;;;;;;5.55;2.83;;;;;;;;;;5134507;27;20506;-73
2021/12/31 10:26:08;;;;;;;12.52;3.22;;;;;;;;;;5134777;27;20089;-72
2021/12/31 10:28:36;;;;;;;5.00;3.08;;;;;;;;;;5133947;27;20062;-72
2021/12/31 10:31:09;;;;;;;8.63;3.63;;;;;;;;;;5134312;27;20414;-72
2021/12/31 10:33:40;;;;;;;5.38;3.00;;;;;;;;;;5133878;27;20079;-72
2021/12/31 10:36:07;;;;;;;10.40;3.50;;;;;;;;;;5134521;27;20055;-71
2021/12/31 10:38:36;;;;;;;6.20;3.55;;;;;;;;;;5134245;27;20057;-71
2021/12/31 10:41:04;;;;;;;6.20;3.15;;;;;;;;;;5134214;27;20058;-72
2021/12/31 10:43:30;;;;;;;9.13;3.50;;;;;;;;;;5134180;27;20431;-71
2021/12/31 10:46:04;;;;;;;8.30;3.45;;;;;;;;;;5134518;27;20483;-73
2021/12/31 10:48:41;;;;;;;7.70;3.67;;;;;;;;;;5134368;27;20083;-73
2021/12/31 10:51:09;;;;;;;5.70;3.05;;;;;;;;;;5121900;27;20086;-76
2021/12/31 10:53:37;;;;;;;7.38;3.70;;;;;;;;;;5114040;28;20147;-73
2021/12/31 10:56:04;;;;;;;9.25;4.03;;;;;;;;;;5121443;27;20051;-73
2021/12/31 10:58:31;;;;;;;10.77;3.45;;;;;;;;;;5132879;27;20085;-73
2021/12/31 11:00:59;;;;;;;7.72;3.78;;;;;;;;;;5133600;27;20059;-76
2021/12/31 11:03:25;;;;;;;7.35;3.63;;;;;;;;;;5133923;27;20109;-74
2021/12/31 11:05:53;;;;;;;6.45;3.65;;;;;;;;;;5131251;27;20446;-74
2021/12/31 11:08:19;;;;;;;6.80;3.30;;;;;;;;;;5119197;27;20087;-74
2021/12/31 11:10:46;;;;;;;6.45;3.40;;;;;;;;;;5133904;27;20064;-74
2021/12/31 11:13:14;;;;;;;3.92;3.30;;;;;;;;;;5134072;27;20055;-74
2021/12/31 11:15:41;;;;;;;5.82;3.42;;;;;;;;;;5134359;27;20538;-74
2021/12/31 11:18:08;;;;;;;9.82;3.85;;;;;;;;;;5134886;27;20061;-73
2021/12/31 11:20:35;;;;;;;5.57;3.78;;;;;;;;;;5144470;27;20073;-73
2021/12/31 11:23:01;;;;;;;6.82;3.53;;;;;;;;;;5137512;27;20052;-76
2021/12/31 11:25:51;;;;;;;9.88;3.58;;;;;;;;;;5130708;27;20051;-77
2021/12/31 11:28:29;;;;;;;10.77;3.50;;;;;;;;;;5127597;27;20083;-74
2021/12/31 11:30:56;;;;;;;6.57;3.55;;;;;;;;;;5136786;27;20047;-79
2021/12/31 11:33:28;;;;;;;6.55;3.63;;;;;;;;;;5145158;27;20142;-76
2021/12/31 11:36:05;;;;;;;7.90;3.58;;;;;;;;;;5156318;27;20058;-79
2021/12/31 11:38:42;;;;;;;6.50;3.70;;;;;;;;;;5137027;27;20492;-75
2021/12/31 11:41:08;;;;;;;8.63;3.67;;;;;;;;;;5136231;27;20127;-78
2021/12/31 11:43:37;;;;;;;8.45;3.60;;;;;;;;;;5137205;27;20047;-76
2021/12/31 11:46:09;;;;;;;7.20;3.58;;;;;;;;;;5136820;27;20139;-77
2021/12/31 11:51:11;;;;;;;5.65;3.65;;;;;;;;;;5137102;27;20058;-80
2021/12/31 11:53:56;;;;;;;5.65;3.90;;;;;;;;;;5136279;27;20517;-80
2021/12/31 11:56:43;;;;;;;11.48;3.33;;;;;;;;;;5136195;27;20048;-82
2021/12/31 11:59:09;;;;;;;8.77;3.80;;;;;;;;;;5135208;27;20051;-81
2021/12/31 12:01:35;;;;;;;7.70;3.90;;;;;;;;;;5116941;27;20070;-80
2021/12/31 12:04:19;;;;;;;8.65;3.70;;;;;;;;;;5127657;27;20059;-83
2021/12/31 12:07:04;;;;;;;11.32;4.10;;;;;;;;;;5133561;27;20144;-79
2021/12/31 12:09:36;;;;;;;13.52;3.75;;;;;;;;;;5136594;27;20559;-79
2021/12/31 12:12:15;;;;;;;7.03;3.58;;;;;;;;;;5130110;27;20062;-78
2021/12/31 12:14:46;;;;;;;8.38;3.30;;;;;;;;;;5136094;27;20057;-80
2021/12/31 12:17:17;;;;;;;5.60;3.25;;;;;;;;;;5135661;27;20514;-80
2021/12/31 12:19:46;;;;;;;7.93;3.50;;;;;;;;;;5136549;27;20916;-80
2021/12/31 12:22:28;;;;;;;8.15;3.45;;;;;;;;;;5136628;27;20055;-80
2021/12/31 12:24:58;;;;;;;9.07;3.08;;;;;;;;;;5137296;27;20050;-79
2021/12/31 12:27:25;;;;;;;8.98;3.88;;;;;;;;;;5136087;27;20177;-79
2021/12/31 12:29:52;;;;;;;10.63;3.78;;;;;;;;;;5136571;27;20054;-80
2021/12/31 12:32:31;;;;;;;10.45;4.10;;;;;;;;;;5136822;27;20051;-79
2021/12/31 12:34:57;;;;;;;5.85;3.05;;;;;;;;;;5127934;27;20055;-79
2021/12/31 12:37:27;;;;;;;11.38;3.42;;;;;;;;;;5134884;27;20132;-80
2021/12/31 12:39:57;;;;;;;6.10;3.60;;;;;;;;;;5134486;27;20062;-80
2021/12/31 12:42:24;;;;;;;14.52;3.65;;;;;;;;;;5130515;27;20105;-80
2021/12/31 12:45:16;;;;;;;9.30;3.60;;;;;;;;;;5136387;27;20059;-81
2021/12/31 12:47:50;;;;;;;12.23;3.92;;;;;;;;;;5133999;27;20113;-80
2021/12/31 12:50:16;;;;;;;10.43;4.15;;;;;;;;;;5128835;27;20043;-83
2021/12/31 12:52:51;;;;;;;9.68;4.22;;;;;;;;;;5119854;27;20066;-78
2021/12/31 12:55:18;;;;;;;9.88;3.95;;;;;;;;;;5136415;27;20056;-82
2021/12/31 12:57:50;;;;;;;9.38;3.35;;;;;;;;;;5136317;27;20127;-81
2021/12/31 13:00:17;;;;;;;9.30;4.25;;;;;;;;;;5134055;27;20151;-81
2021/12/31 13:02:45;;;;;;;8.02;4.13;;;;;;;;;;5133754;27;20058;-79
2021/12/31 13:05:15;;;;;;;7.78;3.95;;;;;;;;;;5133828;27;20090;-76
2021/12/31 13:07:49;;;;;;;9.45;4.80;;;;;;;;;;5131599;27;20504;-77
2021/12/31 13:10:15;;;;;;;7.35;4.43;;;;;;;;;;5131361;27;20135;-74
2021/12/31 13:12:41;;;;;;;8.95;4.38;;;;;;;;;;5133100;27;20062;-76
2021/12/31 13:15:08;;;;;;;5.07;3.53;;;;;;;;;;5124803;27;20142;-73
2021/12/31 13:17:36;;;;;;;7.88;3.88;;;;;;;;;;5131182;27;20047;-73
2021/12/31 13:20:06;;;;;;;6.10;4.13;;;;;;;;;;5136035;27;20058;-77
2021/12/31 13:22:35;;;;;;;7.70;4.10;;;;;;;;;;5133063;27;20134;-77
2021/12/31 13:25:02;;;;;;;8.70;4.22;;;;;;;;;;5133155;27;21222;-73
2021/12/31 13:27:30;;;;;;;12.45;4.63;;;;;;;;;;5118863;27;20047;-75
2021/12/31 13:30:07;;;;;;;10.90;4.95;;;;;;;;;;5121032;27;20056;-74
2021/12/31 13:32:38;;;;;;;7.10;4.20;;;;;;;;;;5134335;27;20112;-74
2021/12/31 13:35:08;;;;;;;13.05;5.00;;;;;;;;;;5133207;27;20051;-80
2021/12/31 13:37:38;;;;;;;8.85;4.10;;;;;;;;;;5133547;27;20047;-79
2021/12/31 13:40:20;;;;;;;12.23;4.75;;;;;;;;;;5121920;27;20048;-79
2021/12/31 13:43:00;;;;;;;8.32;4.03;;;;;;;;;;5122618;27;20055;-80
2021/12/31 13:45:26;;;;;;;11.27;5.18;;;;;;;;;;5131008;27;20058;-75
2021/12/31 13:47:53;;;;;;;10.05;4.75;;;;;;;;;;5132048;27;20583;-74
2021/12/31 13:50:22;;;;;;;11.07;5.32;;;;;;;;;;5130803;27;20092;-79
2021/12/31 13:52:53;;;;;;;11.38;5.22;;;;;;;;;;5132361;27;20093;-79
2021/12/31 13:55:21;;;;;;;11.85;4.85;;;;;;;;;;5127555;27;20155;-79
2021/12/31 13:57:58;;;;;;;10.02;5.38;;;;;;;;;;5128987;27;20054;-77
2021/12/31 14:00:40;;;;;;;9.38;4.65;;;;;;;;;;5130514;27;20487;-76
2021/12/31 14:03:17;;;;;;;12.13;4.47;;;;;;;;;;5131977;27;20106;-79
2021/12/31 14:05:48;;;;;;;19.25;5.40;;;;;;;;;;5115218;27;20071;-78
2021/12/31 14:08:41;;;;;;;14.77;8.63;;;;;;;;;;5112577;27;20135;-77
2021/12/31 14:11:06;;;;;;;16.80;9.23;;;;;;;;;;5127658;27;20081;-79
2021/12/31 14:13:42;;;;;;;7.85;5.43;;;;;;;;;;5129187;27;20052;-78
2021/12/31 14:16:11;;;;;;;13.32;5.10;;;;;;;;;;5129556;27;20047;-76
2021/12/31 14:18:37;;;;;;;15.48;6.50;;;;;;;;;;5128224;27;20075;-75
2021/12/31 14:21:04;;;;;;;13.20;5.20;;;;;;;;;;5132071;27;20136;-78
2021/12/31 14:23:30;;;;;;;11.27;4.60;;;;;;;;;;5125998;27;20047;-77
2021/12/31 14:25:56;;;;;;;12.50;6.10;;;;;;;;;;5129166;27;20059;-77
2021/12/31 14:28:23;;;;;;;13.23;5.15;;;;;;;;;;5124337;27;20531;-77
2021/12/31 14:30:49;;;;;;;16.38;4.97;;;;;;;;;;5122838;27;20054;-77
2021/12/31 14:33:17;;;;;;;15.55;4.90;;;;;;;;;;5130165;27;20453;-77
2021/12/31 14:35:47;;;;;;;11.25;4.50;;;;;;;;;;5129785;27;20166;-78
2021/12/31 14:38:20;;;;;;;7.80;4.45;;;;;;;;;;5130829;27;20059;-75
2021/12/31 14:40:49;;;;;;;12.73;4.50;;;;;;;;;;5130081;27;20159;-80
2021/12/31 14:43:16;;;;;;;11.50;4.63;;;;;;;;;;5125735;27;20047;-82
2021/12/31 14:45:42;;;;;;;9.80;4.28;;;;;;;;;;5127717;27;20585;-79
2021/12/31 14:48:10;;;;;;;16.27;4.40;;;;;;;;;;5127074;27;20138;-81
2021/12/31 14:50:37;;;;;;;26.23;17.77;;;;;;;;;;5130272;27;20067;-80
2021/12/31 14:53:03;;;;;;;11.85;3.83;;;;;;;;;;5123431;27;20130;-80